Nearby METAR Reports


KPAM - Tyndall AFB, FL, USA
Distance from station: SSE 4mi, 7km
Updated: Tue, 18-Sep-2018 11:56pm CDT
Clear
Clear
 Wind from calm
Wind: Calm
Temperature: 77°F , 25°C
Dew Point: 75°F , 24°C
Humidity: 94%
Barometer: 29.94 inHg , 1013.9 hPa
Clouds: Clear
Visibility: 10 miles , 16 km
2018/09/19 04:56 KPAM 190456Z AUTO 00000KT 10SM CLR 25/24 A2994 RMK AO2 SLP142 T02510240 $
KECP - Panama City Beach, FL, USA
Distance from station: NW 20mi, 32km
Updated: Tue, 18-Sep-2018 11:53pm CDT
Clear
Clear
 Wind from calm
Wind: Calm
Temperature: 75°F , 24°C
Dew Point: 73°F , 23°C
Humidity: 94%
Barometer: 29.93 inHg , 1013.5 hPa
Clouds: Clear
Visibility: 10 miles , 16 km
2018/09/19 04:53 KECP 190453Z AUTO 00000KT 10SM CLR 24/23 A2993 RMK AO2 SLP146 T02440228
 
KAAF - Apalachicola, FL, USA
Distance from station: SE 43mi, 69km
Updated: Tue, 18-Sep-2018 11:53pm CDT
Clear
Clear
 Wind from calm
Wind: Calm
Temperature: 79°F , 26°C
Dew Point: 79°F , 26°C
Humidity: 100%
Barometer: 29.95 inHg , 1014.2 hPa
Clouds: Clear
Visibility: 10 miles , 16 km
2018/09/19 04:53 KAAF 190453Z AUTO 00000KT 10SM CLR 26/26 A2995 RMK AO2 SLP140 T02560256 403280250
KMAI - Marianna, FL, USA
Distance from station: NNE 55mi, 88km
Updated: Tue, 18-Sep-2018 11:53pm CDT
Mostly cloudy
Mostly cloudy
 Wind from S
Wind: S 3 mph , 6 km/h
Temperature: 73°F , 23°C
Dew Point: 72°F , 22°C
Humidity: 94%
Barometer: 29.94 inHg , 1013.9 hPa
Clouds: Mostly cloudy
Visibility: 10 miles , 16 km
Cloud details: Mostly cloudy 12000 ft
2018/09/19 04:53 KMAI 190453Z AUTO 19003KT 10SM BKN120 23/22 A2994 RMK AO2 SLP137 T02330222
 
KDTS - Destin, FL, USA
Distance from station: WNW 56mi, 90km
Updated: Tue, 18-Sep-2018 11:53pm CDT
Clear
Clear
 Wind from calm
Wind: Calm
Temperature: 81°F , 27°C
Heat Index: 88°F , 31°C
Dew Point: 77°F , 25°C
Humidity: 89%
Barometer: 29.93 inHg , 1013.5 hPa
Clouds: Clear
Visibility: 10 miles , 16 km
2018/09/19 04:53 KDTS 190453Z AUTO 00000KT 10SM CLR 27/25 A2993 RMK AO2 SLP135 T02670250
KVPS - Valpariso-Eglin AFB, FL, USA
Distance from station: WNW 60mi, 97km
Updated: Tue, 18-Sep-2018 11:55pm CDT
Few Clouds
Few Clouds
 Wind from calm
Wind: Calm
Temperature: 79°F , 26°C
Dew Point: 75°F , 24°C
Humidity: 89%
Barometer: 29.93 inHg , 1013.5 hPa
Clouds: Few Clouds
Visibility: 10 miles , 16 km
Cloud details: Few Clouds 2500 ft
2018/09/19 04:55 KVPS 190455Z 00000KT 10SM FEW025 26/24 A2993 RMK AO2A SLP141 T02600238 $
 
KEGI - Duke Field, FL, USA
Distance from station: WNW 66mi, 105km
Updated: Tue, 18-Sep-2018 11:55pm CDT
Partly cloudy
Partly cloudy
 Wind from calm
Wind: Calm
Temperature: 75°F , 24°C
Dew Point: 75°F , 24°C
Humidity: 100%
Barometer: 29.94 inHg , 1013.9 hPa
Clouds: Partly cloudy
Visibility: 10 miles , 16 km
Cloud details: Partly cloudy 30000 ft
2018/09/19 04:55 KEGI 190455Z 00000KT 10SM SCT300 24/24 A2994 RMK AO2A SLP138 T02420238 $
KHRT - Hurlburt Field, FL, USA
Distance from station: WNW 67mi, 108km
Updated: Tue, 18-Sep-2018 10:56pm CDT
Clear
Clear
 Wind from calm
Wind: Calm
Temperature: 79°F , 26°C
Dew Point: 70°F , 21°C
Humidity: 74%
Barometer: 29.92 inHg , 1013.2 hPa
Clouds: Clear
Visibility: 10 miles , 16 km
2018/09/19 03:56 KHRT 190356Z 00000KT 10SM CLR 26/21 A2992 RMK AO2A SLP133 T02580210 $
 
KCEW - Crestview, FL, USA
Distance from station: NW 72mi, 115km
Updated: Tue, 18-Sep-2018 11:53pm CDT
Clear
Clear
 Wind from calm
Wind: Calm
Temperature: 73°F , 23°C
Dew Point: 72°F , 22°C
Humidity: 94%
Barometer: 29.95 inHg , 1014.2 hPa
Clouds: Clear
Visibility: 9 miles , 14 km
2018/09/19 04:53 KCEW 190453Z AUTO 00000KT 9SM CLR 23/22 A2995 RMK AO2 SLP139 T02330222
KTLH - Tallahassee, FL, USA
Distance from station: ENE 77mi, 123km
Updated: Tue, 18-Sep-2018 11:53pm CDT
Clear
Clear
 Wind from calm
Wind: Calm
Temperature: 73°F , 23°C
Dew Point: 72°F , 22°C
Humidity: 94%
Barometer: 29.94 inHg , 1013.9 hPa
Clouds: Clear
Visibility: 10 miles , 16 km
2018/09/19 04:53 KTLH 190453Z AUTO 00000KT 10SM CLR 23/22 A2994 RMK AO2 SLP136 T02280222 403390222 $
 
KOZR - Cairns AAF, AL, USA
Distance from station: N 81mi, 130km
Updated: Tue, 18-Sep-2018 11:56pm CDT
Clear
Clear
 Wind from calm
Wind: Calm
Temperature: 72°F , 22°C
Dew Point: 70°F , 21°C
Humidity: 94%
Barometer: 29.94 inHg , 1013.9 hPa
Clouds: Clear
Visibility: 10 miles , 16 km
2018/09/19 04:56 KOZR 190456Z AUTO 00000KT 10SM CLR 22/21 A2994 RMK AO2 SLP138 T02230214
KDHN - Dothan, AL, USA
Distance from station: N 83mi, 134km
Updated: Tue, 18-Sep-2018 11:53pm CDT
Clear
Clear
 Wind from calm
Wind: Calm
Temperature: 73°F , 23°C
Dew Point: 70°F , 21°C
Humidity: 89%
Barometer: 29.98 inHg , 1015.2 hPa
Clouds: Clear
Visibility: 10 miles , 16 km
2018/09/19 04:53 KDHN 190453Z AUTO 00000KT 10SM CLR 23/21 A2998 RMK AO2 SLP146 T02330211 403560228